Terminal Aerodrome Forecast
Issued by NWS

Current Version | Previous Version | Graphics & Text | Print | Product List | Glossary On
Versions: 1 2 3 4 5 6 7 8 9 10 11 12 13 14
000
FTUS41 KPBZ 211724
TAFMGW
TAF
KMGW 211724Z 2118/2218 22012G20KT P6SM FEW200
     FM212300 21009KT P6SM BKN150
     FM220800 29008KT P6SM -SHRA OVC025
     FM221100 30007KT 5SM -SHSN BKN025
     FM221600 30007KT P6SM VCSH BKN030=

USA.gov is the U.S. government's official web portal to all federal, state and local government web resources and services.